createdAt,value
2022-12-17T00:00:44.366Z,0
2022-12-17T00:01:45.375Z,0
2022-12-17T00:02:46.783Z,0
2022-12-17T00:03:48.846Z,0
2022-12-17T00:04:47.540Z,0
2022-12-17T00:05:48.133Z,0
2022-12-17T00:06:49.071Z,0
2022-12-17T00:07:49.256Z,0
2022-12-17T00:08:49.388Z,0
2022-12-17T00:09:56.206Z,0
2022-12-17T00:10:50.609Z,0
2022-12-17T00:11:51.304Z,0
2022-12-17T00:12:51.771Z,0
2022-12-17T00:13:52.510Z,0
2022-12-17T00:14:52.413Z,0
2022-12-17T00:15:52.658Z,0
2022-12-17T00:16:54.100Z,0
2022-12-17T00:17:54.021Z,0
2022-12-17T00:18:54.936Z,0
2022-12-17T00:20:01.498Z,0
2022-12-17T00:20:59.133Z,0
2022-12-17T00:21:57.209Z,0
2022-12-17T00:22:59.054Z,0
2022-12-17T00:24:02.149Z,0
2022-12-17T00:25:01.894Z,0
2022-12-17T00:26:00.491Z,0
2022-12-17T00:27:01.757Z,0
2022-12-17T00:27:59.653Z,0
2022-12-17T00:29:01.621Z,0
2022-12-17T00:30:01.534Z,0
2022-12-17T00:31:03.346Z,0
2022-12-17T00:32:03.587Z,0
2022-12-17T00:33:04.919Z,0
2022-12-17T00:34:05.100Z,0
2022-12-17T00:35:05.307Z,0
2022-12-17T00:36:07.020Z,0
2022-12-17T00:37:06.946Z,0
2022-12-17T00:38:07.836Z,0
2022-12-17T00:39:08.443Z,0
2022-12-17T00:40:10.730Z,0
2022-12-17T00:41:09.774Z,0
2022-12-17T00:42:09.415Z,0
2022-12-17T00:43:09.868Z,0
2022-12-17T00:44:11.050Z,0
2022-12-17T00:45:11.959Z,0
2022-12-17T00:46:12.725Z,0
2022-12-17T00:47:13.027Z,0
2022-12-17T00:48:12.964Z,0
2022-12-17T00:49:13.153Z,0
2022-12-17T00:50:12.793Z,0
2022-12-17T00:51:13.678Z,0
2022-12-17T00:52:14.020Z,0
2022-12-17T00:53:16.016Z,0
2022-12-17T00:54:14.901Z,0
2022-12-17T00:55:16.093Z,0
2022-12-17T00:56:16.161Z,0
2022-12-17T00:57:16.056Z,0
2022-12-17T00:58:17.247Z,0
2022-12-17T00:59:17.852Z,0
2022-12-17T01:00:19.057Z,0
2022-12-17T01:01:19.765Z,0
2022-12-17T01:02:21.103Z,0
2022-12-17T01:03:20.813Z,0
2022-12-17T01:04:21.770Z,0
2022-12-17T01:05:21.685Z,0
2022-12-17T01:06:22.670Z,0
2022-12-17T01:07:22.631Z,0
2022-12-17T01:08:23.115Z,0
2022-12-17T01:09:22.725Z,0
2022-12-17T01:10:23.650Z,0
2022-12-17T01:11:24.601Z,0
2022-12-17T01:12:24.527Z,0
2022-12-17T01:13:25.749Z,0
2022-12-17T01:14:25.660Z,0
2022-12-17T01:15:26.547Z,0
2022-12-17T01:16:27.562Z,0
2022-12-17T01:17:27.978Z,0
2022-12-17T01:18:27.893Z,0
2022-12-17T01:19:29.120Z,0
2022-12-17T01:20:29.721Z,0
2022-12-17T01:21:30.681Z,0
2022-12-17T01:22:31.331Z,0
2022-12-17T01:23:30.941Z,0
2022-12-17T01:24:32.032Z,0
2022-12-17T01:25:32.540Z,0
2022-12-17T01:26:32.743Z,0
2022-12-17T01:27:32.946Z,0
2022-12-17T01:28:33.835Z,0
2022-12-17T01:29:35.019Z,0
2022-12-17T01:30:35.202Z,0
2022-12-17T01:31:40.843Z,0
2022-12-17T01:32:35.860Z,0
2022-12-17T01:33:36.129Z,0
2022-12-17T01:34:35.933Z,0
2022-12-17T01:35:36.822Z,0
2022-12-17T01:36:37.274Z,0
2022-12-17T01:37:38.492Z,0
2022-12-17T01:38:39.109Z,0
2022-12-17T01:39:40.029Z,0
2022-12-17T01:40:40.929Z,0
2022-12-17T01:41:41.536Z,0
2022-12-17T01:42:41.766Z,0
2022-12-17T01:43:43.804Z,0
2022-12-17T01:44:43.444Z,0
2022-12-17T01:45:44.501Z,0
2022-12-17T01:46:45.224Z,0
2022-12-17T01:47:46.152Z,0
2022-12-17T01:48:46.768Z,0
2022-12-17T01:49:47.979Z,0
2022-12-17T01:50:47.878Z,0
2022-12-17T01:51:48.089Z,0
2022-12-17T01:52:48.726Z,0
2022-12-17T01:53:50.440Z,0
2022-12-17T01:54:49.762Z,0
2022-12-17T01:55:50.406Z,0
2022-12-17T01:56:51.191Z,0
2022-12-17T01:57:50.917Z,0
2022-12-17T01:58:52.234Z,0
2022-12-17T01:59:53.716Z,0
2022-12-17T02:00:54.256Z,0
2022-12-17T02:01:55.691Z,0
2022-12-17T02:02:55.193Z,0
2022-12-17T02:03:55.346Z,0
2022-12-17T02:04:56.257Z,0
2022-12-17T02:05:56.741Z,0
2022-12-17T02:06:57.109Z,0
2022-12-17T02:07:57.761Z,0
2022-12-17T02:08:57.961Z,0
2022-12-17T02:09:58.873Z,0
2022-12-17T02:11:02.411Z,0
2022-12-17T02:11:59.405Z,0
2022-12-17T02:12:59.597Z,0
2022-12-17T02:13:59.502Z,0
2022-12-17T02:15:02.006Z,0
2022-12-17T02:16:01.225Z,0
2022-12-17T02:17:01.365Z,0
2022-12-17T02:18:02.587Z,0
2022-12-17T02:19:02.799Z,0
2022-12-17T02:20:03.496Z,0
2022-12-17T02:21:04.724Z,0
2022-12-17T02:22:04.620Z,0
2022-12-17T02:23:05.973Z,0
2022-12-17T02:24:08.061Z,0
2022-12-17T02:25:06.975Z,0
2022-12-17T02:26:06.885Z,0
2022-12-17T02:27:07.651Z,0
2022-12-17T02:28:07.856Z,0
2022-12-17T02:29:08.339Z,0
2022-12-17T02:30:08.554Z,0
2022-12-17T02:31:09.437Z,0
2022-12-17T02:32:10.880Z,0
2022-12-17T02:33:11.512Z,0
2022-12-17T02:34:12.424Z,0
2022-12-17T02:35:12.335Z,0
2022-12-17T02:36:13.229Z,0
2022-12-17T02:37:12.947Z,0
2022-12-17T02:38:15.126Z,0
2022-12-17T02:39:15.813Z,0
2022-12-17T02:40:15.515Z,0
2022-12-17T02:41:16.882Z,0
2022-12-17T02:42:18.239Z,0
2022-12-17T02:43:18.719Z,0
2022-12-17T02:44:18.362Z,0
2022-12-17T02:45:18.971Z,0
2022-12-17T02:46:20.501Z,0
2022-12-17T02:47:20.616Z,0
2022-12-17T02:48:21.233Z,0
2022-12-17T02:49:22.121Z,0
2022-12-17T02:50:22.605Z,0
2022-12-17T02:51:23.240Z,0
2022-12-17T02:52:23.728Z,0
2022-12-17T02:53:24.193Z,0
2022-12-17T02:54:25.092Z,0
2022-12-17T02:55:25.296Z,0
2022-12-17T02:56:25.854Z,0
2022-12-17T02:57:26.485Z,0
2022-12-17T02:58:26.981Z,0
2022-12-17T02:59:27.159Z,0
2022-12-17T03:00:27.649Z,0
2022-12-17T03:01:28.491Z,0
2022-12-17T03:02:29.913Z,0
2022-12-17T03:03:29.105Z,0
2022-12-17T03:04:29.946Z,0
2022-12-17T03:05:55.016Z,0
2022-12-17T03:06:30.640Z,0
2022-12-17T03:07:30.480Z,0
2022-12-17T03:08:31.684Z,0
2022-12-17T03:09:32.317Z,0
2022-12-17T03:10:33.253Z,0
2022-12-17T03:11:33.753Z,0
2022-12-17T03:12:34.011Z,0
2022-12-17T03:13:34.408Z,0
2022-12-17T03:14:35.006Z,0
2022-12-17T03:15:34.620Z,0
2022-12-17T03:16:43.761Z,0
2022-12-17T03:17:36.244Z,0
2022-12-17T03:18:37.130Z,0
2022-12-17T03:19:37.750Z,0
2022-12-17T03:20:38.659Z,0
2022-12-17T03:21:39.144Z,0
2022-12-17T03:22:38.752Z,0
2022-12-17T03:23:40.796Z,0
2022-12-17T03:24:39.978Z,0
2022-12-17T03:25:40.191Z,0
2022-12-17T03:26:41.424Z,0
2022-12-17T03:27:41.876Z,0
2022-12-17T03:28:42.899Z,0
2022-12-17T03:29:43.508Z,0
2022-12-17T03:30:54.992Z,0
2022-12-17T03:31:45.700Z,0
2022-12-17T03:32:45.906Z,0
2022-12-17T03:33:46.898Z,0
2022-12-17T03:34:45.941Z,0
2022-12-17T03:35:46.838Z,0
2022-12-17T03:36:48.021Z,0
2022-12-17T03:37:48.748Z,0
2022-12-17T03:38:49.293Z,0
2022-12-17T03:39:49.622Z,0
2022-12-17T03:40:50.579Z,0
2022-12-17T03:41:51.540Z,0
2022-12-17T03:42:52.226Z,0
2022-12-17T03:43:52.459Z,0
2022-12-17T03:44:52.070Z,0
2022-12-17T03:45:53.531Z,0
2022-12-17T03:46:53.567Z,0
2022-12-17T03:47:53.710Z,0
2022-12-17T03:48:55.086Z,0
2022-12-17T03:49:55.265Z,0
2022-12-17T03:50:56.163Z,0
2022-12-17T03:51:57.349Z,0
2022-12-17T03:52:56.972Z,0
2022-12-17T03:53:58.197Z,0
2022-12-17T03:54:58.424Z,0
2022-12-17T03:55:59.332Z,0
2022-12-17T03:56:59.825Z,0
2022-12-17T03:58:00.488Z,0
2022-12-17T03:59:00.405Z,0
2022-12-17T04:00:01.020Z,0
2022-12-17T04:01:01.665Z,0
2022-12-17T04:02:03.380Z,0
2022-12-17T04:03:04.889Z,0
2022-12-17T04:04:04.187Z,0
2022-12-17T04:05:05.096Z,0
2022-12-17T04:06:05.294Z,0
2022-12-17T04:07:06.480Z,0
2022-12-17T04:08:06.641Z,0
2022-12-17T04:09:07.557Z,0
2022-12-17T04:10:08.745Z,0
2022-12-17T04:11:09.657Z,0
2022-12-17T04:12:09.572Z,0
2022-12-17T04:13:10.253Z,0
2022-12-17T04:14:10.765Z,0
2022-12-17T04:15:10.970Z,0
2022-12-17T04:16:11.481Z,0
2022-12-17T04:17:10.933Z,0
2022-12-17T04:18:12.222Z,0
2022-12-17T04:19:11.841Z,0
2022-12-17T04:20:12.151Z,0
2022-12-17T04:21:13.362Z,0
2022-12-17T04:22:13.294Z,0
2022-12-17T04:23:14.206Z,0
2022-12-17T04:24:14.214Z,0
2022-12-17T04:25:15.423Z,0
2022-12-17T04:26:16.061Z,0
2022-12-17T04:27:15.968Z,0
2022-12-17T04:28:16.432Z,0
2022-12-17T04:29:17.943Z,0
2022-12-17T04:30:18.421Z,0
2022-12-17T04:31:18.590Z,0
2022-12-17T04:32:19.159Z,0
2022-12-17T04:33:19.637Z,0
2022-12-17T04:34:19.840Z,0
2022-12-17T04:35:20.168Z,0
2022-12-17T04:36:21.374Z,0
2022-12-17T04:37:22.559Z,0
2022-12-17T04:38:22.278Z,0
2022-12-17T04:39:23.189Z,0
2022-12-17T04:40:24.687Z,0
2022-12-17T04:41:24.883Z,0
2022-12-17T04:42:24.514Z,0
2022-12-17T04:43:25.821Z,0
2022-12-17T04:44:26.013Z,0
2022-12-17T04:45:26.931Z,0
2022-12-17T04:46:28.214Z,0
2022-12-17T04:47:27.965Z,0
2022-12-17T04:48:28.684Z,0
2022-12-17T04:49:28.724Z,0
2022-12-17T04:50:29.658Z,0
2022-12-17T04:51:30.560Z,0
2022-12-17T04:52:31.469Z,0
2022-12-17T04:53:32.412Z,0
2022-12-17T04:54:33.316Z,0
2022-12-17T04:55:34.516Z,0
2022-12-17T04:56:35.181Z,0
2022-12-17T04:57:36.129Z,0
2022-12-17T04:58:36.046Z,0
2022-12-17T04:59:36.960Z,0
2022-12-17T05:00:38.455Z,0
2022-12-17T05:01:39.020Z,0
2022-12-17T05:02:48.257Z,0
2022-12-17T05:03:41.720Z,0
2022-12-17T05:04:40.631Z,0
2022-12-17T05:05:41.244Z,0
2022-12-17T05:06:42.153Z,0
2022-12-17T05:07:42.792Z,0
2022-12-17T05:08:50.185Z,0
2022-12-17T05:09:44.219Z,0
2022-12-17T05:10:45.131Z,0
2022-12-17T05:11:45.749Z,0
2022-12-17T05:12:46.959Z,0
2022-12-17T05:13:47.480Z,0
2022-12-17T05:14:47.395Z,0
2022-12-17T05:15:53.231Z,0
2022-12-17T05:16:48.394Z,0
2022-12-17T05:17:48.017Z,0
2022-12-17T05:18:48.750Z,0
2022-12-17T05:19:49.676Z,0
2022-12-17T05:20:50.600Z,0
2022-12-17T05:21:51.217Z,0
2022-12-17T05:22:52.110Z,0
2022-12-17T05:23:51.469Z,0
2022-12-17T05:24:53.409Z,0
2022-12-17T05:25:53.295Z,0
2022-12-17T05:26:54.202Z,0
2022-12-17T05:27:55.128Z,0
2022-12-17T05:28:55.943Z,0
2022-12-17T05:29:57.445Z,0
2022-12-17T05:30:58.192Z,0
2022-12-17T05:31:58.229Z,0
2022-12-17T05:32:58.415Z,0
2022-12-17T05:33:58.735Z,0
2022-12-17T05:35:02.270Z,0
2022-12-17T05:35:59.913Z,0
2022-12-17T05:37:01.395Z,0
2022-12-17T05:38:02.011Z,0
2022-12-17T05:39:02.123Z,0
2022-12-17T05:40:05.463Z,0
2022-12-17T05:41:03.800Z,0
2022-12-17T05:42:04.439Z,0
2022-12-17T05:43:04.777Z,0
2022-12-17T05:44:06.035Z,0
2022-12-17T05:45:06.556Z,0
2022-12-17T05:46:07.116Z,0
2022-12-17T05:47:07.577Z,0
2022-12-17T05:48:07.492Z,0
2022-12-17T05:49:07.903Z,0
2022-12-17T05:50:08.809Z,0
2022-12-17T05:51:10.014Z,0
2022-12-17T05:52:10.200Z,0
2022-12-17T05:53:10.685Z,0
2022-12-17T05:54:10.599Z,0
2022-12-17T05:55:11.555Z,0
2022-12-17T05:56:11.766Z,0
2022-12-17T05:57:11.672Z,0
2022-12-17T05:58:13.171Z,0
2022-12-17T05:59:13.497Z,0
2022-12-17T06:00:13.399Z,0
2022-12-17T06:01:14.366Z,0
2022-12-17T06:02:14.838Z,0
2022-12-17T06:03:16.104Z,0
2022-12-17T06:04:15.657Z,0
2022-12-17T06:05:16.875Z,0
2022-12-17T06:06:16.208Z,0
2022-12-17T06:07:17.120Z,0
2022-12-17T06:08:18.027Z,0
2022-12-17T06:09:19.009Z,0
2022-12-17T06:10:20.021Z,0
2022-12-17T06:11:20.227Z,0
2022-12-17T06:12:20.829Z,0
2022-12-17T06:13:21.463Z,0
2022-12-17T06:14:22.034Z,0
2022-12-17T06:15:22.248Z,0
2022-12-17T06:16:23.151Z,0
2022-12-17T06:17:23.490Z,0
2022-12-17T06:18:27.809Z,0
2022-12-17T06:19:24.790Z,0
2022-12-17T06:20:25.976Z,0
2022-12-17T06:21:25.862Z,0
2022-12-17T06:22:26.479Z,0
2022-12-17T06:23:27.092Z,0
2022-12-17T06:24:27.296Z,0
2022-12-17T06:25:28.832Z,0
2022-12-17T06:26:29.163Z,0
2022-12-17T06:27:30.078Z,0
2022-12-17T06:28:30.997Z,0
2022-12-17T06:29:31.466Z,0
2022-12-17T06:30:32.383Z,0
2022-12-17T06:31:33.311Z,4
2022-12-17T06:32:34.331Z,0
2022-12-17T06:33:35.108Z,0
2022-12-17T06:34:35.009Z,0
2022-12-17T06:35:35.621Z,4
2022-12-17T06:36:37.255Z,4
2022-12-17T06:37:38.166Z,0
2022-12-17T06:38:38.514Z,4
2022-12-17T06:39:39.822Z,4
2022-12-17T06:40:40.019Z,4
2022-12-17T06:41:40.343Z,4
2022-12-17T06:42:41.250Z,8
2022-12-17T06:43:42.698Z,4
2022-12-17T06:44:42.652Z,8
2022-12-17T06:45:42.645Z,8
2022-12-17T06:46:43.876Z,12
2022-12-17T06:47:44.037Z,12
2022-12-17T06:48:45.089Z,12
2022-12-17T06:49:46.099Z,12
2022-12-17T06:50:46.879Z,20
2022-12-17T06:51:47.781Z,20
2022-12-17T06:52:48.294Z,24
2022-12-17T06:53:49.045Z,28
2022-12-17T06:54:48.673Z,32
2022-12-17T06:55:49.597Z,32
2022-12-17T06:56:50.229Z,36
2022-12-17T06:57:56.326Z,36
2022-12-17T06:58:52.129Z,36
2022-12-17T06:59:53.185Z,40
2022-12-17T07:00:53.702Z,40
2022-12-17T07:01:54.244Z,44
2022-12-17T07:02:55.437Z,52
2022-12-17T07:03:54.835Z,52
2022-12-17T07:04:54.629Z,60
2022-12-17T07:05:55.536Z,68
2022-12-17T07:06:55.171Z,72
2022-12-17T07:07:57.791Z,72
2022-12-17T07:08:59.265Z,72
2022-12-17T07:09:58.035Z,76
2022-12-17T07:10:57.714Z,80
2022-12-17T07:11:58.359Z,84
2022-12-17T07:12:59.652Z,88
2022-12-17T07:13:59.852Z,92
2022-12-17T07:15:02.700Z,92
2022-12-17T07:16:00.106Z,100
2022-12-17T07:17:00.942Z,100
2022-12-17T07:18:00.833Z,104
2022-12-17T07:19:01.749Z,104
2022-12-17T07:20:02.518Z,108
2022-12-17T07:21:03.418Z,112
2022-12-17T07:22:03.317Z,112
2022-12-17T07:23:04.250Z,116
2022-12-17T07:24:04.446Z,124
2022-12-17T07:25:04.347Z,128
2022-12-17T07:26:05.360Z,136
2022-12-17T07:27:05.852Z,136
2022-12-17T07:28:05.470Z,144
2022-12-17T07:29:06.698Z,148
2022-12-17T07:30:06.873Z,160
2022-12-17T07:31:08.059Z,172
2022-12-17T07:32:08.961Z,192
2022-12-17T07:33:08.944Z,204
2022-12-17T07:34:09.858Z,212
2022-12-17T07:35:11.092Z,224
2022-12-17T07:36:11.020Z,232
2022-12-17T07:37:14.920Z,252
2022-12-17T07:38:13.024Z,264
2022-12-17T07:39:12.927Z,280
2022-12-17T07:40:13.720Z,300
2022-12-17T07:41:14.665Z,316
2022-12-17T07:42:15.572Z,328
2022-12-17T07:43:16.776Z,332
2022-12-17T07:44:17.307Z,356
2022-12-17T07:45:17.403Z,380
2022-12-17T07:46:18.049Z,404
2022-12-17T07:47:18.358Z,432
2022-12-17T07:48:18.700Z,460
2022-12-17T07:49:24.052Z,500
2022-12-17T07:50:20.620Z,524
2022-12-17T07:51:21.349Z,524
2022-12-17T07:52:22.537Z,520
2022-12-17T07:53:23.448Z,524
2022-12-17T07:54:24.342Z,528
2022-12-17T07:55:29.343Z,516
2022-12-17T07:56:25.269Z,504
2022-12-17T07:57:26.200Z,492
2022-12-17T07:58:26.410Z,500
2022-12-17T07:59:26.627Z,524
2022-12-17T08:00:27.453Z,556
2022-12-17T08:01:28.261Z,584
2022-12-17T08:02:29.390Z,592
2022-12-17T08:03:29.532Z,580
2022-12-17T08:04:29.770Z,564
2022-12-17T08:05:30.416Z,556
2022-12-17T08:06:31.610Z,560
2022-12-17T08:07:31.221Z,588
2022-12-17T08:08:32.427Z,620
2022-12-17T08:09:32.618Z,640
2022-12-17T08:10:33.603Z,648
2022-12-17T08:11:33.540Z,636
2022-12-17T08:12:34.451Z,604
2022-12-17T08:13:35.703Z,564
2022-12-17T08:14:35.623Z,540
2022-12-17T08:15:37.160Z,540
2022-12-17T08:16:37.942Z,568
2022-12-17T08:17:37.907Z,600
2022-12-17T08:18:38.308Z,636
2022-12-17T08:19:39.243Z,680
2022-12-17T08:20:39.486Z,704
2022-12-17T08:21:40.082Z,716
2022-12-17T08:22:40.691Z,724
2022-12-17T08:23:42.363Z,732
2022-12-17T08:24:42.556Z,732
2022-12-17T08:25:43.746Z,720
2022-12-17T08:26:53.030Z,700
2022-12-17T08:27:43.951Z,700
2022-12-17T08:29:02.582Z,728
2022-12-17T08:29:45.239Z,744
2022-12-17T08:30:45.735Z,764
2022-12-17T08:31:46.087Z,760
2022-12-17T08:32:46.689Z,748
2022-12-17T08:33:47.958Z,732
2022-12-17T08:34:48.573Z,708
2022-12-17T08:35:49.476Z,700
2022-12-17T08:36:50.105Z,692
2022-12-17T08:37:50.747Z,704
2022-12-17T08:38:51.933Z,708
2022-12-17T08:39:52.058Z,700
2022-12-17T08:40:52.887Z,708
2022-12-17T08:42:04.578Z,712
2022-12-17T08:42:54.686Z,716
2022-12-17T08:43:54.879Z,728
2022-12-17T08:44:56.126Z,728
2022-12-17T08:45:56.400Z,712
2022-12-17T08:46:56.806Z,676
2022-12-17T08:48:02.150Z,612
2022-12-17T08:48:58.464Z,576
2022-12-17T08:49:58.958Z,576
2022-12-17T08:50:58.969Z,576
2022-12-17T08:52:00.158Z,572
2022-12-17T08:53:00.794Z,552
2022-12-17T08:54:01.727Z,508
2022-12-17T08:55:02.639Z,480
2022-12-17T08:56:02.982Z,468
2022-12-17T08:57:03.243Z,468
2022-12-17T08:58:03.559Z,476
2022-12-17T08:59:10.731Z,472
2022-12-17T09:00:05.118Z,480
2022-12-17T09:01:08.998Z,500
2022-12-17T09:02:08.318Z,520
2022-12-17T09:03:08.527Z,536
2022-12-17T09:04:07.701Z,540
2022-12-17T09:05:08.621Z,552
2022-12-17T09:06:09.250Z,572
2022-12-17T09:07:10.181Z,596
2022-12-17T09:08:10.375Z,624
2022-12-17T09:09:11.554Z,652
2022-12-17T09:10:12.182Z,684
2022-12-17T09:11:12.295Z,708
2022-12-17T09:12:13.647Z,728
2022-12-17T09:13:16.521Z,744
2022-12-17T09:14:14.137Z,760
2022-12-17T09:15:15.337Z,784
2022-12-17T09:16:16.358Z,820
2022-12-17T09:17:17.369Z,876
2022-12-17T09:18:17.582Z,960
2022-12-17T09:19:18.063Z,1060
2022-12-17T09:20:18.253Z,1148
2022-12-17T09:21:18.604Z,1220
2022-12-17T09:22:19.218Z,1252
2022-12-17T09:23:20.139Z,1256
2022-12-17T09:24:20.331Z,1228
2022-12-17T09:25:21.398Z,1180
2022-12-17T09:26:22.592Z,1168
2022-12-17T09:27:22.594Z,1196
2022-12-17T09:28:23.485Z,1184
2022-12-17T09:29:23.819Z,1108
2022-12-17T09:30:25.048Z,1012
2022-12-17T09:31:25.349Z,960
2022-12-17T09:32:25.804Z,960
2022-12-17T09:33:26.422Z,964
2022-12-17T09:34:27.030Z,948
2022-12-17T09:35:27.957Z,944
2022-12-17T09:36:28.148Z,1000
2022-12-17T09:37:29.037Z,1052
2022-12-17T09:38:29.657Z,1088
2022-12-17T09:39:30.586Z,1124
2022-12-17T09:40:31.208Z,1132
2022-12-17T09:41:31.627Z,1136
2022-12-17T09:42:33.563Z,1124
2022-12-17T09:43:34.088Z,1096
2022-12-17T09:44:34.619Z,1084
2022-12-17T09:45:34.835Z,1088
2022-12-17T09:46:36.094Z,1096
2022-12-17T09:47:36.194Z,1112
2022-12-17T09:48:43.350Z,1120
2022-12-17T09:49:37.968Z,1128
2022-12-17T09:50:39.171Z,1132
2022-12-17T09:51:40.174Z,1132
2022-12-17T09:52:40.522Z,1152
2022-12-17T09:53:42.880Z,1196
2022-12-17T09:54:42.086Z,1232
2022-12-17T09:55:42.293Z,1260
2022-12-17T09:56:43.506Z,1272
2022-12-17T09:57:43.729Z,1292
2022-12-17T09:58:43.642Z,1320
2022-12-17T09:59:43.829Z,1364
2022-12-17T10:00:44.039Z,1396
2022-12-17T10:01:45.108Z,1424
2022-12-17T10:02:45.952Z,1432
2022-12-17T10:03:46.831Z,1436
2022-12-17T10:04:45.145Z,1452
2022-12-17T10:05:45.783Z,1488
2022-12-17T10:06:46.123Z,1516
2022-12-17T10:07:47.613Z,1532
2022-12-17T10:08:47.474Z,1528
2022-12-17T10:09:48.086Z,1516
2022-12-17T10:10:48.913Z,1512
2022-12-17T10:11:49.335Z,1532
2022-12-17T10:12:48.962Z,1620
2022-12-17T10:13:50.484Z,1724
2022-12-17T10:14:49.814Z,1748
2022-12-17T10:15:51.663Z,1672
2022-12-17T10:16:52.776Z,1576
2022-12-17T10:17:53.013Z,1564
2022-12-17T10:18:52.927Z,1620
2022-12-17T10:19:53.485Z,1604
2022-12-17T10:20:54.117Z,1524
2022-12-17T10:21:55.714Z,1472
2022-12-17T10:22:55.912Z,1476
2022-12-17T10:23:56.397Z,1472
2022-12-17T10:24:56.590Z,1448
2022-12-17T10:25:56.497Z,1424
2022-12-17T10:26:56.403Z,1404
2022-12-17T10:27:57.442Z,1388
2022-12-17T10:28:58.082Z,1352
2022-12-17T10:30:00.216Z,1304
2022-12-17T10:30:59.591Z,1280
2022-12-17T10:31:59.908Z,1284
2022-12-17T10:32:59.530Z,1284
2022-12-17T10:34:00.453Z,1292
2022-12-17T10:35:05.144Z,1320
2022-12-17T10:36:01.451Z,1312
2022-12-17T10:37:02.079Z,1292
2022-12-17T10:38:02.426Z,1296
2022-12-17T10:39:04.058Z,1320
2022-12-17T10:40:04.970Z,1348
2022-12-17T10:41:04.879Z,1360
2022-12-17T10:42:05.178Z,1340
2022-12-17T10:43:05.684Z,1324
2022-12-17T10:44:05.584Z,1352
2022-12-17T10:45:07.073Z,1392
2022-12-17T10:46:08.200Z,1400
2022-12-17T10:47:08.548Z,1404
2022-12-17T10:48:08.771Z,1416
2022-12-17T10:49:17.272Z,1424
2022-12-17T10:50:10.465Z,1440
2022-12-17T10:51:10.866Z,1444
2022-12-17T10:52:11.858Z,1436
2022-12-17T10:53:12.492Z,1412
2022-12-17T10:54:13.393Z,1408
2022-12-17T10:55:14.292Z,1404
2022-12-17T10:56:14.911Z,1396
2022-12-17T10:57:15.528Z,1376
2022-12-17T10:58:16.860Z,1348
2022-12-17T10:59:17.205Z,1348
2022-12-17T11:00:18.690Z,1348
2022-12-17T11:01:19.551Z,1352
2022-12-17T11:02:20.658Z,1352
2022-12-17T11:03:20.645Z,1356
2022-12-17T11:04:20.648Z,1352
2022-12-17T11:05:20.857Z,1344
2022-12-17T11:06:22.050Z,1344
2022-12-17T11:07:21.942Z,1364
2022-12-17T11:08:22.281Z,1388
2022-12-17T11:09:23.170Z,1420
2022-12-17T11:10:23.357Z,1468
2022-12-17T11:11:23.843Z,1528
2022-12-17T11:12:28.737Z,1572
2022-12-17T11:13:24.577Z,1612
2022-12-17T11:14:24.486Z,1616
2022-12-17T11:15:24.403Z,1636
2022-12-17T11:16:25.747Z,1668
2022-12-17T11:17:26.527Z,1728
2022-12-17T11:18:27.034Z,1784
2022-12-17T11:19:26.957Z,1808
2022-12-17T11:20:27.301Z,1800
2022-12-17T11:21:28.499Z,1784
2022-12-17T11:22:28.827Z,1816
2022-12-17T11:23:29.332Z,1884
2022-12-17T11:24:34.134Z,1972
2022-12-17T11:25:31.023Z,2020
2022-12-17T11:26:31.666Z,2084
2022-12-17T11:27:32.156Z,2148
2022-12-17T11:28:32.087Z,2224
2022-12-17T11:29:33.014Z,2296
2022-12-17T11:30:39.131Z,2340
2022-12-17T11:31:34.756Z,2372
2022-12-17T11:32:34.607Z,2352
2022-12-17T11:33:35.189Z,2276
2022-12-17T11:34:35.057Z,2212
2022-12-17T11:35:35.732Z,2188
2022-12-17T11:36:44.969Z,2168
2022-12-17T11:37:37.178Z,2120
2022-12-17T11:38:37.529Z,2080
2022-12-17T11:39:37.474Z,2056
2022-12-17T11:40:37.961Z,2040
2022-12-17T11:41:37.575Z,2068
2022-12-17T11:42:37.980Z,2080
2022-12-17T11:43:38.495Z,2044
2022-12-17T11:44:38.394Z,2016
2022-12-17T11:45:38.282Z,2004
2022-12-17T11:46:39.162Z,2040
2022-12-17T11:47:39.285Z,2128
2022-12-17T11:48:41.285Z,2208
2022-12-17T11:49:41.480Z,2304
2022-12-17T11:50:41.681Z,2380
2022-12-17T11:51:42.885Z,2328
2022-12-17T11:52:42.339Z,2268
2022-12-17T11:53:43.277Z,2220
2022-12-17T11:54:43.211Z,2236
2022-12-17T11:55:43.112Z,2268
2022-12-17T11:56:43.740Z,2280
2022-12-17T11:57:44.636Z,2208
2022-12-17T11:58:46.157Z,2096
2022-12-17T11:59:51.100Z,2004
2022-12-17T12:00:46.276Z,1952
2022-12-17T12:01:47.527Z,1908
2022-12-17T12:02:48.385Z,1844
2022-12-17T12:03:49.113Z,1816
2022-12-17T12:04:50.221Z,1848
2022-12-17T12:05:54.975Z,1920
2022-12-17T12:06:51.345Z,1972
2022-12-17T12:07:51.982Z,2008
2022-12-17T12:08:52.600Z,2016
2022-12-17T12:09:53.812Z,2044
2022-12-17T12:10:54.304Z,2008
2022-12-17T12:11:54.500Z,1936
2022-12-17T12:12:54.917Z,1896
2022-12-17T12:13:56.428Z,1836
2022-12-17T12:14:56.624Z,1820
2022-12-17T12:15:57.457Z,1856
2022-12-17T12:16:58.456Z,1892
2022-12-17T12:17:58.132Z,1880
2022-12-17T12:18:58.355Z,1904
2022-12-17T12:19:59.248Z,1980
2022-12-17T12:21:00.161Z,2060
2022-12-17T12:22:02.362Z,2128
2022-12-17T12:23:01.668Z,2228
2022-12-17T12:24:01.735Z,2256
2022-12-17T12:25:02.925Z,2216
2022-12-17T12:26:03.838Z,2248
2022-12-17T12:27:03.154Z,2328
2022-12-17T12:28:04.093Z,2368
2022-12-17T12:29:05.361Z,2356
2022-12-17T12:30:05.571Z,2292
2022-12-17T12:31:05.909Z,2184
2022-12-17T12:32:06.469Z,2068
2022-12-17T12:33:15.596Z,2020
2022-12-17T12:34:08.156Z,2000
2022-12-17T12:35:08.062Z,1952
2022-12-17T12:36:09.261Z,1864
2022-12-17T12:37:09.743Z,1772
2022-12-17T12:38:09.635Z,1728
2022-12-17T12:39:10.532Z,1712
2022-12-17T12:40:11.151Z,1680
2022-12-17T12:41:11.470Z,1620
2022-12-17T12:42:12.389Z,1572
2022-12-17T12:43:13.078Z,1576
2022-12-17T12:44:12.721Z,1596
2022-12-17T12:45:13.364Z,1596
2022-12-17T12:46:14.158Z,1576
2022-12-17T12:47:14.453Z,1560
2022-12-17T12:48:15.107Z,1564
2022-12-17T12:49:16.358Z,1576
2022-12-17T12:50:16.563Z,1600
2022-12-17T12:51:17.479Z,1612
2022-12-17T12:52:17.457Z,1584
2022-12-17T12:53:19.020Z,1592
2022-12-17T12:54:19.668Z,1636
2022-12-17T12:55:19.884Z,1644
2022-12-17T12:56:20.200Z,1636
2022-12-17T12:57:21.390Z,1624
2022-12-17T12:58:22.125Z,1616
2022-12-17T12:59:23.047Z,1580
2022-12-17T13:00:23.672Z,1532
2022-12-17T13:01:25.190Z,1440
2022-12-17T13:02:26.367Z,1352
2022-12-17T13:03:39.861Z,1360
2022-12-17T13:04:26.994Z,1396
2022-12-17T13:05:27.897Z,1440
2022-12-17T13:06:28.691Z,1536
2022-12-17T13:07:28.317Z,1648
2022-12-17T13:08:29.506Z,1684
2022-12-17T13:09:39.903Z,1588
2022-12-17T13:10:30.507Z,1536
2022-12-17T13:11:30.545Z,1508
2022-12-17T13:12:31.732Z,1488
2022-12-17T13:13:31.994Z,1488
2022-12-17T13:14:32.649Z,1544
2022-12-17T13:15:38.741Z,1644
2022-12-17T13:16:32.773Z,1740
2022-12-17T13:17:32.810Z,1832
2022-12-17T13:18:33.900Z,1816
2022-12-17T13:19:34.941Z,1780
2022-12-17T13:20:35.149Z,1768
2022-12-17T13:21:36.062Z,1796
2022-12-17T13:22:36.559Z,1848
2022-12-17T13:23:36.587Z,1924
2022-12-17T13:24:37.504Z,1852
2022-12-17T13:25:38.422Z,1836
2022-12-17T13:26:38.641Z,1764
2022-12-17T13:27:39.288Z,1668
2022-12-17T13:28:40.722Z,1552
2022-12-17T13:29:41.418Z,1456
2022-12-17T13:30:41.725Z,1340
2022-12-17T13:31:42.888Z,1228
2022-12-17T13:32:42.876Z,1180
2022-12-17T13:33:43.839Z,1180
2022-12-17T13:34:44.894Z,1172
2022-12-17T13:35:45.089Z,1164
2022-12-17T13:36:46.277Z,1136
2022-12-17T13:37:45.888Z,1108
2022-12-17T13:38:47.451Z,1080
2022-12-17T13:39:47.934Z,1044
2022-12-17T13:40:48.144Z,1008
2022-12-17T13:41:48.057Z,1004
2022-12-17T13:42:48.993Z,1024
2022-12-17T13:43:49.322Z,1028
2022-12-17T13:44:50.261Z,1020
2022-12-17T13:45:51.753Z,996
2022-12-17T13:46:57.755Z,968
2022-12-17T13:47:52.688Z,956
2022-12-17T13:48:52.300Z,948
2022-12-17T13:50:39.238Z,936
2022-12-17T13:50:56.161Z,932
2022-12-17T13:51:57.916Z,920
2022-12-17T13:52:58.406Z,916
2022-12-17T13:53:59.630Z,928
2022-12-17T13:55:01.326Z,936
2022-12-17T13:56:00.235Z,932
2022-12-17T13:57:00.833Z,912
2022-12-17T13:58:01.166Z,888
2022-12-17T13:59:07.901Z,896
2022-12-17T14:00:02.944Z,912
2022-12-17T14:01:03.158Z,912
2022-12-17T14:02:03.880Z,904
2022-12-17T14:03:04.185Z,892
2022-12-17T14:04:19.551Z,860
2022-12-17T14:05:19.627Z,856
2022-12-17T14:06:20.564Z,860
2022-12-17T14:07:20.760Z,844
2022-12-17T14:08:20.673Z,816
2022-12-17T14:09:21.885Z,776
2022-12-17T14:10:23.085Z,764
2022-12-17T14:11:22.996Z,760
2022-12-17T14:12:23.930Z,752
2022-12-17T14:13:24.586Z,720
2022-12-17T14:14:25.861Z,688